sensor_id;sensor_type;location;lat;lon;timestamp;P1;durP1;ratioP1;P2;durP2;ratioP2
56943;SDS011;42848;42.524;12.052;2023-01-01T00:00:46;37.38;;;20.52;;
56943;SDS011;42848;42.524;12.052;2023-01-01T00:03:12;35.17;;;21.45;;
56943;SDS011;42848;42.524;12.052;2023-01-01T00:05:39;27.45;;;14.52;;
56943;SDS011;42848;42.524;12.052;2023-01-01T00:08:05;17.13;;;9.10;;
56943;SDS011;42848;42.524;12.052;2023-01-01T00:10:31;27.80;;;14.85;;
56943;SDS011;42848;42.524;12.052;2023-01-01T00:12:58;24.77;;;14.90;;
56943;SDS011;42848;42.524;12.052;2023-01-01T00:15:24;27.08;;;16.83;;
56943;SDS011;42848;42.524;12.052;2023-01-01T00:17:51;34.50;;;19.27;;
56943;SDS011;42848;42.524;12.052;2023-01-01T00:20:17;22.85;;;12.20;;
56943;SDS011;42848;42.524;12.052;2023-01-01T00:22:43;14.73;;;7.90;;
56943;SDS011;42848;42.524;12.052;2023-01-01T00:25:09;15.43;;;7.07;;
56943;SDS011;42848;42.524;12.052;2023-01-01T00:27:38;17.48;;;9.25;;
56943;SDS011;42848;42.524;12.052;2023-01-01T00:30:05;19.90;;;11.00;;
56943;SDS011;42848;42.524;12.052;2023-01-01T00:32:31;25.75;;;13.73;;
56943;SDS011;42848;42.524;12.052;2023-01-01T00:34:57;26.30;;;13.75;;
56943;SDS011;42848;42.524;12.052;2023-01-01T00:37:22;26.50;;;12.35;;
56943;SDS011;42848;42.524;12.052;2023-01-01T00:39:48;37.47;;;18.15;;
56943;SDS011;42848;42.524;12.052;2023-01-01T00:42:14;32.80;;;15.55;;
56943;SDS011;42848;42.524;12.052;2023-01-01T00:44:39;35.72;;;17.70;;
56943;SDS011;42848;42.524;12.052;2023-01-01T00:47:05;51.13;;;25.05;;
56943;SDS011;42848;42.524;12.052;2023-01-01T00:49:31;23.35;;;9.35;;
56943;SDS011;42848;42.524;12.052;2023-01-01T00:51:57;30.02;;;16.58;;
56943;SDS011;42848;42.524;12.052;2023-01-01T00:54:23;26.25;;;14.80;;
56943;SDS011;42848;42.524;12.052;2023-01-01T00:56:48;26.15;;;13.75;;
56943;SDS011;42848;42.524;12.052;2023-01-01T00:59:14;20.50;;;10.63;;
56943;SDS011;42848;42.524;12.052;2023-01-01T01:01:40;22.65;;;12.15;;
56943;SDS011;42848;42.524;12.052;2023-01-01T01:04:06;19.65;;;10.80;;
56943;SDS011;42848;42.524;12.052;2023-01-01T01:06:33;20.88;;;11.45;;
56943;SDS011;42848;42.524;12.052;2023-01-01T01:08:59;20.17;;;12.48;;
56943;SDS011;42848;42.524;12.052;2023-01-01T01:11:25;17.75;;;8.73;;
56943;SDS011;42848;42.524;12.052;2023-01-01T01:13:52;15.25;;;8.60;;
56943;SDS011;42848;42.524;12.052;2023-01-01T01:16:20;20.05;;;10.27;;
56943;SDS011;42848;42.524;12.052;2023-01-01T01:18:49;22.67;;;8.98;;
56943;SDS011;42848;42.524;12.052;2023-01-01T01:21:17;15.15;;;7.80;;
56943;SDS011;42848;42.524;12.052;2023-01-01T01:23:43;16.05;;;7.28;;
56943;SDS011;42848;42.524;12.052;2023-01-01T01:26:10;14.60;;;7.60;;
56943;SDS011;42848;42.524;12.052;2023-01-01T01:28:44;17.20;;;10.20;;
56943;SDS011;42848;42.524;12.052;2023-01-01T01:31:10;15.65;;;8.80;;
56943;SDS011;42848;42.524;12.052;2023-01-01T01:33:37;16.30;;;7.80;;
56943;SDS011;42848;42.524;12.052;2023-01-01T01:36:03;11.70;;;7.07;;
56943;SDS011;42848;42.524;12.052;2023-01-01T01:38:30;11.10;;;6.43;;
56943;SDS011;42848;42.524;12.052;2023-01-01T01:40:56;14.52;;;7.10;;
56943;SDS011;42848;42.524;12.052;2023-01-01T01:46:00;15.13;;;7.80;;
56943;SDS011;42848;42.524;12.052;2023-01-01T01:48:27;14.75;;;7.57;;
56943;SDS011;42848;42.524;12.052;2023-01-01T01:51:02;15.60;;;8.00;;
56943;SDS011;42848;42.524;12.052;2023-01-01T01:53:29;15.98;;;8.23;;
56943;SDS011;42848;42.524;12.052;2023-01-01T01:56:03;12.50;;;7.32;;
56943;SDS011;42848;42.524;12.052;2023-01-01T01:58:33;13.07;;;7.22;;
56943;SDS011;42848;42.524;12.052;2023-01-01T02:00:59;12.57;;;6.68;;
56943;SDS011;42848;42.524;12.052;2023-01-01T02:03:30;14.63;;;7.03;;
56943;SDS011;42848;42.524;12.052;2023-01-01T02:06:04;11.75;;;6.85;;
56943;SDS011;42848;42.524;12.052;2023-01-01T02:08:30;14.95;;;6.97;;
56943;SDS011;42848;42.524;12.052;2023-01-01T02:10:56;12.82;;;6.97;;
56943;SDS011;42848;42.524;12.052;2023-01-01T02:13:22;11.85;;;6.68;;
56943;SDS011;42848;42.524;12.052;2023-01-01T02:15:52;15.63;;;8.02;;
56943;SDS011;42848;42.524;12.052;2023-01-01T02:18:25;13.40;;;6.70;;
56943;SDS011;42848;42.524;12.052;2023-01-01T02:21:24;12.32;;;6.55;;
56943;SDS011;42848;42.524;12.052;2023-01-01T02:23:59;13.37;;;6.57;;
56943;SDS011;42848;42.524;12.052;2023-01-01T02:32:08;14.15;;;8.85;;
56943;SDS011;42848;42.524;12.052;2023-01-01T02:34:42;13.43;;;7.20;;
56943;SDS011;42848;42.524;12.052;2023-01-01T02:37:12;14.05;;;6.55;;
56943;SDS011;42848;42.524;12.052;2023-01-01T02:39:42;14.75;;;6.15;;
56943;SDS011;42848;42.524;12.052;2023-01-01T02:42:11;14.30;;;5.55;;
56943;SDS011;42848;42.524;12.052;2023-01-01T02:44:39;13.15;;;5.50;;
56943;SDS011;42848;42.524;12.052;2023-01-01T02:47:10;12.32;;;5.60;;
56943;SDS011;42848;42.524;12.052;2023-01-01T02:49:41;14.18;;;5.32;;
56943;SDS011;42848;42.524;12.052;2023-01-01T02:52:37;12.40;;;5.50;;
56943;SDS011;42848;42.524;12.052;2023-01-01T02:55:40;10.32;;;5.65;;
56943;SDS011;42848;42.524;12.052;2023-01-01T02:58:15;10.57;;;5.57;;
56943;SDS011;42848;42.524;12.052;2023-01-01T03:01:33;10.77;;;5.90;;
56943;SDS011;42848;42.524;12.052;2023-01-01T03:04:08;11.60;;;6.10;;
56943;SDS011;42848;42.524;12.052;2023-01-01T03:06:54;9.48;;;5.50;;
56943;SDS011;42848;42.524;12.052;2023-01-01T03:09:32;8.80;;;4.80;;
56943;SDS011;42848;42.524;12.052;2023-01-01T03:12:26;7.68;;;4.97;;
56943;SDS011;42848;42.524;12.052;2023-01-01T03:15:50;8.73;;;4.90;;
56943;SDS011;42848;42.524;12.052;2023-01-01T03:18:07;12.90;;;5.53;;
56943;SDS011;42848;42.524;12.052;2023-01-01T03:20:40;10.13;;;5.47;;
56943;SDS011;42848;42.524;12.052;2023-01-01T03:23:12;7.05;;;4.93;;
56943;SDS011;42848;42.524;12.052;2023-01-01T03:25:50;7.70;;;4.93;;
56943;SDS011;42848;42.524;12.052;2023-01-01T03:28:21;10.35;;;5.72;;
56943;SDS011;42848;42.524;12.052;2023-01-01T03:30:56;7.85;;;5.55;;
56943;SDS011;42848;42.524;12.052;2023-01-01T03:33:26;9.77;;;5.45;;
56943;SDS011;42848;42.524;12.052;2023-01-01T03:35:58;8.43;;;4.75;;
56943;SDS011;42848;42.524;12.052;2023-01-01T03:38:35;13.43;;;5.55;;
56943;SDS011;42848;42.524;12.052;2023-01-01T03:41:14;9.90;;;5.72;;
56943;SDS011;42848;42.524;12.052;2023-01-01T03:44:06;14.85;;;7.18;;
56943;SDS011;42848;42.524;12.052;2023-01-01T03:46:37;13.13;;;8.00;;
56943;SDS011;42848;42.524;12.052;2023-01-01T03:49:04;24.92;;;11.98;;
56943;SDS011;42848;42.524;12.052;2023-01-01T03:51:39;25.00;;;12.63;;
56943;SDS011;42848;42.524;12.052;2023-01-01T03:54:35;22.15;;;11.68;;
56943;SDS011;42848;42.524;12.052;2023-01-01T04:00:32;10.40;;;6.97;;
56943;SDS011;42848;42.524;12.052;2023-01-01T04:03:10;14.60;;;8.40;;
56943;SDS011;42848;42.524;12.052;2023-01-01T04:05:42;10.95;;;6.90;;
56943;SDS011;42848;42.524;12.052;2023-01-01T04:08:08;9.30;;;6.60;;
56943;SDS011;42848;42.524;12.052;2023-01-01T04:10:37;10.80;;;6.90;;
56943;SDS011;42848;42.524;12.052;2023-01-01T04:13:06;10.52;;;7.28;;
56943;SDS011;42848;42.524;12.052;2023-01-01T04:15:32;13.05;;;8.02;;
56943;SDS011;42848;42.524;12.052;2023-01-01T04:18:00;10.40;;;7.05;;
56943;SDS011;42848;42.524;12.052;2023-01-01T04:20:25;11.25;;;6.95;;
56943;SDS011;42848;42.524;12.052;2023-01-01T04:22:54;8.95;;;6.57;;
56943;SDS011;42848;42.524;12.052;2023-01-01T04:25:20;11.95;;;7.20;;
56943;SDS011;42848;42.524;12.052;2023-01-01T04:27:46;11.43;;;8.07;;
56943;SDS011;42848;42.524;12.052;2023-01-01T04:30:12;12.85;;;8.52;;
56943;SDS011;42848;42.524;12.052;2023-01-01T04:32:39;15.65;;;8.70;;
56943;SDS011;42848;42.524;12.052;2023-01-01T04:35:05;15.20;;;9.13;;
56943;SDS011;42848;42.524;12.052;2023-01-01T04:37:35;19.02;;;10.75;;
56943;SDS011;42848;42.524;12.052;2023-01-01T04:40:02;22.80;;;12.77;;
56943;SDS011;42848;42.524;12.052;2023-01-01T04:42:28;20.85;;;12.13;;
56943;SDS011;42848;42.524;12.052;2023-01-01T04:44:54;20.48;;;11.20;;
56943;SDS011;42848;42.524;12.052;2023-01-01T04:47:20;19.58;;;11.65;;
56943;SDS011;42848;42.524;12.052;2023-01-01T04:49:46;21.10;;;11.30;;
56943;SDS011;42848;42.524;12.052;2023-01-01T04:52:11;17.23;;;9.73;;
56943;SDS011;42848;42.524;12.052;2023-01-01T04:54:37;16.45;;;10.90;;
56943;SDS011;42848;42.524;12.052;2023-01-01T04:57:03;17.13;;;10.38;;
56943;SDS011;42848;42.524;12.052;2023-01-01T04:59:29;16.13;;;9.70;;
56943;SDS011;42848;42.524;12.052;2023-01-01T05:01:55;15.98;;;9.52;;
56943;SDS011;42848;42.524;12.052;2023-01-01T05:04:20;14.32;;;9.40;;
56943;SDS011;42848;42.524;12.052;2023-01-01T05:06:46;16.60;;;9.23;;
56943;SDS011;42848;42.524;12.052;2023-01-01T05:09:12;15.00;;;9.75;;
56943;SDS011;42848;42.524;12.052;2023-01-01T05:11:38;19.67;;;11.13;;
56943;SDS011;42848;42.524;12.052;2023-01-01T05:14:04;17.15;;;9.77;;
56943;SDS011;42848;42.524;12.052;2023-01-01T05:16:31;18.02;;;11.30;;
56943;SDS011;42848;42.524;12.052;2023-01-01T05:18:58;26.48;;;14.45;;
56943;SDS011;42848;42.524;12.052;2023-01-01T05:21:25;19.90;;;12.35;;
56943;SDS011;42848;42.524;12.052;2023-01-01T05:23:57;20.23;;;11.10;;
56943;SDS011;42848;42.524;12.052;2023-01-01T05:26:26;18.20;;;10.38;;
56943;SDS011;42848;42.524;12.052;2023-01-01T05:28:53;15.77;;;9.73;;
56943;SDS011;42848;42.524;12.052;2023-01-01T05:31:21;76.43;;;44.60;;
56943;SDS011;42848;42.524;12.052;2023-01-01T05:33:49;36.60;;;20.85;;
56943;SDS011;42848;42.524;12.052;2023-01-01T05:36:20;20.40;;;12.20;;
56943;SDS011;42848;42.524;12.052;2023-01-01T05:38:48;21.67;;;10.65;;
56943;SDS011;42848;42.524;12.052;2023-01-01T05:41:15;18.67;;;9.23;;
56943;SDS011;42848;42.524;12.052;2023-01-01T05:43:41;16.65;;;10.07;;
56943;SDS011;42848;42.524;12.052;2023-01-01T05:46:11;15.43;;;9.48;;
56943;SDS011;42848;42.524;12.052;2023-01-01T05:48:42;16.40;;;9.55;;
56943;SDS011;42848;42.524;12.052;2023-01-01T05:51:12;14.02;;;8.82;;
56943;SDS011;42848;42.524;12.052;2023-01-01T05:53:48;10.98;;;8.05;;
56943;SDS011;42848;42.524;12.052;2023-01-01T05:56:15;12.52;;;8.55;;
56943;SDS011;42848;42.524;12.052;2023-01-01T05:58:41;13.15;;;8.93;;
56943;SDS011;42848;42.524;12.052;2023-01-01T06:01:09;14.63;;;9.32;;
56943;SDS011;42848;42.524;12.052;2023-01-01T06:03:40;14.13;;;9.13;;
56943;SDS011;42848;42.524;12.052;2023-01-01T06:06:08;14.45;;;9.95;;
56943;SDS011;42848;42.524;12.052;2023-01-01T06:08:38;13.80;;;9.73;;
56943;SDS011;42848;42.524;12.052;2023-01-01T06:11:06;14.40;;;9.85;;
56943;SDS011;42848;42.524;12.052;2023-01-01T06:13:35;15.40;;;9.70;;
56943;SDS011;42848;42.524;12.052;2023-01-01T06:16:01;10.93;;;8.00;;
56943;SDS011;42848;42.524;12.052;2023-01-01T06:18:28;11.52;;;8.07;;
56943;SDS011;42848;42.524;12.052;2023-01-01T06:21:02;10.65;;;7.97;;
56943;SDS011;42848;42.524;12.052;2023-01-01T06:23:38;12.82;;;8.40;;
56943;SDS011;42848;42.524;12.052;2023-01-01T06:26:08;14.57;;;9.63;;
56943;SDS011;42848;42.524;12.052;2023-01-01T06:28:36;17.30;;;10.93;;
56943;SDS011;42848;42.524;12.052;2023-01-01T06:31:02;20.38;;;11.85;;
56943;SDS011;42848;42.524;12.052;2023-01-01T06:33:30;22.58;;;13.90;;
56943;SDS011;42848;42.524;12.052;2023-01-01T06:35:57;23.55;;;16.13;;
56943;SDS011;42848;42.524;12.052;2023-01-01T06:38:23;17.92;;;11.27;;
56943;SDS011;42848;42.524;12.052;2023-01-01T06:40:55;21.73;;;13.38;;
56943;SDS011;42848;42.524;12.052;2023-01-01T06:43:22;22.48;;;12.40;;
56943;SDS011;42848;42.524;12.052;2023-01-01T06:45:57;18.40;;;10.40;;
56943;SDS011;42848;42.524;12.052;2023-01-01T06:48:24;20.40;;;11.05;;
56943;SDS011;42848;42.524;12.052;2023-01-01T06:50:50;19.38;;;10.07;;
56943;SDS011;42848;42.524;12.052;2023-01-01T06:53:15;13.70;;;9.30;;
56943;SDS011;42848;42.524;12.052;2023-01-01T06:55:46;11.48;;;7.75;;
56943;SDS011;42848;42.524;12.052;2023-01-01T06:58:13;14.30;;;8.40;;
56943;SDS011;42848;42.524;12.052;2023-01-01T07:00:38;15.82;;;9.68;;
56943;SDS011;42848;42.524;12.052;2023-01-01T07:03:04;15.57;;;10.43;;
56943;SDS011;42848;42.524;12.052;2023-01-01T07:05:30;20.17;;;12.82;;
56943;SDS011;42848;42.524;12.052;2023-01-01T07:07:55;21.27;;;13.32;;
56943;SDS011;42848;42.524;12.052;2023-01-01T07:10:21;19.70;;;13.05;;
56943;SDS011;42848;42.524;12.052;2023-01-01T07:12:47;19.50;;;12.65;;
56943;SDS011;42848;42.524;12.052;2023-01-01T07:15:12;18.48;;;9.93;;
56943;SDS011;42848;42.524;12.052;2023-01-01T07:17:38;12.80;;;8.85;;
56943;SDS011;42848;42.524;12.052;2023-01-01T07:20:04;14.85;;;9.88;;
56943;SDS011;42848;42.524;12.052;2023-01-01T07:22:30;20.60;;;12.40;;
56943;SDS011;42848;42.524;12.052;2023-01-01T07:24:56;41.53;;;23.08;;
56943;SDS011;42848;42.524;12.052;2023-01-01T07:27:21;21.75;;;13.07;;
56943;SDS011;42848;42.524;12.052;2023-01-01T07:29:47;23.20;;;14.00;;
56943;SDS011;42848;42.524;12.052;2023-01-01T07:32:13;26.20;;;13.70;;
56943;SDS011;42848;42.524;12.052;2023-01-01T07:34:38;22.33;;;12.32;;
56943;SDS011;42848;42.524;12.052;2023-01-01T07:37:04;32.83;;;17.88;;
56943;SDS011;42848;42.524;12.052;2023-01-01T07:39:30;33.22;;;18.85;;
56943;SDS011;42848;42.524;12.052;2023-01-01T07:41:55;49.15;;;28.75;;
56943;SDS011;42848;42.524;12.052;2023-01-01T07:44:21;26.05;;;16.35;;
56943;SDS011;42848;42.524;12.052;2023-01-01T07:46:46;22.58;;;13.27;;
56943;SDS011;42848;42.524;12.052;2023-01-01T07:49:12;22.45;;;13.60;;
56943;SDS011;42848;42.524;12.052;2023-01-01T07:51:38;26.25;;;14.70;;
56943;SDS011;42848;42.524;12.052;2023-01-01T07:54:03;38.58;;;22.27;;
56943;SDS011;42848;42.524;12.052;2023-01-01T07:56:29;32.08;;;19.40;;
56943;SDS011;42848;42.524;12.052;2023-01-01T07:58:55;34.38;;;19.83;;
56943;SDS011;42848;42.524;12.052;2023-01-01T08:01:20;24.27;;;13.65;;
56943;SDS011;42848;42.524;12.052;2023-01-01T08:03:49;24.38;;;12.00;;
56943;SDS011;42848;42.524;12.052;2023-01-01T08:06:16;23.67;;;11.43;;
56943;SDS011;42848;42.524;12.052;2023-01-01T08:08:42;21.13;;;11.68;;
56943;SDS011;42848;42.524;12.052;2023-01-01T08:11:08;18.48;;;11.10;;
56943;SDS011;42848;42.524;12.052;2023-01-01T08:13:33;21.38;;;11.80;;
56943;SDS011;42848;42.524;12.052;2023-01-01T08:15:59;20.95;;;11.57;;
56943;SDS011;42848;42.524;12.052;2023-01-01T08:18:25;18.35;;;11.25;;
56943;SDS011;42848;42.524;12.052;2023-01-01T08:20:51;20.23;;;10.82;;
56943;SDS011;42848;42.524;12.052;2023-01-01T08:23:17;15.77;;;9.63;;
56943;SDS011;42848;42.524;12.052;2023-01-01T08:25:42;19.02;;;10.38;;
56943;SDS011;42848;42.524;12.052;2023-01-01T08:28:08;16.27;;;9.98;;
56943;SDS011;42848;42.524;12.052;2023-01-01T08:30:34;17.55;;;9.63;;
56943;SDS011;42848;42.524;12.052;2023-01-01T08:33:00;18.58;;;9.73;;
56943;SDS011;42848;42.524;12.052;2023-01-01T08:35:25;15.60;;;9.90;;
56943;SDS011;42848;42.524;12.052;2023-01-01T08:37:51;17.70;;;9.30;;
56943;SDS011;42848;42.524;12.052;2023-01-01T08:40:17;18.75;;;9.90;;
56943;SDS011;42848;42.524;12.052;2023-01-01T08:42:43;18.38;;;9.85;;
56943;SDS011;42848;42.524;12.052;2023-01-01T08:45:08;18.20;;;9.93;;
56943;SDS011;42848;42.524;12.052;2023-01-01T08:47:34;20.85;;;10.40;;
56943;SDS011;42848;42.524;12.052;2023-01-01T08:50:00;17.73;;;9.93;;
56943;SDS011;42848;42.524;12.052;2023-01-01T08:52:26;22.05;;;9.90;;
56943;SDS011;42848;42.524;12.052;2023-01-01T08:54:51;17.30;;;10.38;;
56943;SDS011;42848;42.524;12.052;2023-01-01T08:57:17;17.92;;;10.70;;
56943;SDS011;42848;42.524;12.052;2023-01-01T08:59:43;21.63;;;10.82;;
56943;SDS011;42848;42.524;12.052;2023-01-01T09:02:09;18.70;;;10.50;;
56943;SDS011;42848;42.524;12.052;2023-01-01T09:04:35;17.48;;;9.98;;
56943;SDS011;42848;42.524;12.052;2023-01-01T09:07:01;17.40;;;10.35;;
56943;SDS011;42848;42.524;12.052;2023-01-01T09:09:27;18.52;;;9.88;;
56943;SDS011;42848;42.524;12.052;2023-01-01T09:11:54;19.95;;;11.23;;
56943;SDS011;42848;42.524;12.052;2023-01-01T09:14:21;21.50;;;10.98;;
56943;SDS011;42848;42.524;12.052;2023-01-01T09:16:47;20.08;;;11.98;;
56943;SDS011;42848;42.524;12.052;2023-01-01T09:19:13;20.67;;;11.70;;
56943;SDS011;42848;42.524;12.052;2023-01-01T09:21:39;25.85;;;12.73;;
56943;SDS011;42848;42.524;12.052;2023-01-01T09:24:04;22.75;;;12.68;;
56943;SDS011;42848;42.524;12.052;2023-01-01T09:26:30;20.42;;;12.98;;
56943;SDS011;42848;42.524;12.052;2023-01-01T09:28:56;18.38;;;11.52;;
56943;SDS011;42848;42.524;12.052;2023-01-01T09:31:22;19.10;;;10.07;;
56943;SDS011;42848;42.524;12.052;2023-01-01T09:33:48;17.15;;;9.63;;
56943;SDS011;42848;42.524;12.052;2023-01-01T09:36:23;16.25;;;8.88;;
56943;SDS011;42848;42.524;12.052;2023-01-01T09:38:52;15.27;;;9.20;;
56943;SDS011;42848;42.524;12.052;2023-01-01T09:44:23;13.98;;;8.60;;
56943;SDS011;42848;42.524;12.052;2023-01-01T09:47:04;17.35;;;9.20;;
56943;SDS011;42848;42.524;12.052;2023-01-01T09:49:44;17.77;;;9.30;;
56943;SDS011;42848;42.524;12.052;2023-01-01T09:52:12;45.95;;;26.05;;
56943;SDS011;42848;42.524;12.052;2023-01-01T09:54:42;62.90;;;46.20;;
56943;SDS011;42848;42.524;12.052;2023-01-01T09:57:35;23.00;;;13.27;;
56943;SDS011;42848;42.524;12.052;2023-01-01T10:00:01;15.20;;;9.60;;
56943;SDS011;42848;42.524;12.052;2023-01-01T10:05:26;16.05;;;8.95;;
56943;SDS011;42848;42.524;12.052;2023-01-01T10:13:41;59.28;;;29.73;;
56943;SDS011;42848;42.524;12.052;2023-01-01T10:16:42;22.05;;;12.60;;
56943;SDS011;42848;42.524;12.052;2023-01-01T10:21:57;17.52;;;8.50;;
56943;SDS011;42848;42.524;12.052;2023-01-01T10:26:56;19.63;;;9.85;;
56943;SDS011;42848;42.524;12.052;2023-01-01T10:29:42;17.67;;;9.65;;
56943;SDS011;42848;42.524;12.052;2023-01-01T10:34:52;17.35;;;10.18;;
56943;SDS011;42848;42.524;12.052;2023-01-01T10:37:19;16.85;;;9.18;;
56943;SDS011;42848;42.524;12.052;2023-01-01T10:39:46;16.27;;;8.68;;
56943;SDS011;42848;42.524;12.052;2023-01-01T10:42:13;18.30;;;11.27;;
56943;SDS011;42848;42.524;12.052;2023-01-01T10:44:40;16.38;;;9.38;;
56943;SDS011;42848;42.524;12.052;2023-01-01T10:47:23;16.83;;;9.27;;
56943;SDS011;42848;42.524;12.052;2023-01-01T10:49:54;18.02;;;9.50;;
56943;SDS011;42848;42.524;12.052;2023-01-01T10:52:37;21.52;;;11.40;;
56943;SDS011;42848;42.524;12.052;2023-01-01T10:55:05;16.10;;;10.48;;
56943;SDS011;42848;42.524;12.052;2023-01-01T10:57:52;19.92;;;11.38;;
56943;SDS011;42848;42.524;12.052;2023-01-01T11:05:37;18.30;;;11.00;;
56943;SDS011;42848;42.524;12.052;2023-01-01T11:08:03;19.63;;;10.90;;
56943;SDS011;42848;42.524;12.052;2023-01-01T11:10:39;15.52;;;10.27;;
56943;SDS011;42848;42.524;12.052;2023-01-01T11:13:13;16.95;;;11.02;;
56943;SDS011;42848;42.524;12.052;2023-01-01T11:15:43;20.42;;;11.45;;
56943;SDS011;42848;42.524;12.052;2023-01-01T11:18:13;17.52;;;10.73;;
56943;SDS011;42848;42.524;12.052;2023-01-01T11:20:40;16.05;;;9.93;;
56943;SDS011;42848;42.524;12.052;2023-01-01T11:23:17;25.30;;;16.30;;
56943;SDS011;42848;42.524;12.052;2023-01-01T11:26:00;15.13;;;9.48;;
56943;SDS011;42848;42.524;12.052;2023-01-01T11:28:32;19.02;;;10.80;;
56943;SDS011;42848;42.524;12.052;2023-01-01T11:33:53;15.30;;;9.02;;
56943;SDS011;42848;42.524;12.052;2023-01-01T11:36:25;14.68;;;9.43;;
56943;SDS011;42848;42.524;12.052;2023-01-01T11:39:16;21.60;;;14.38;;
56943;SDS011;42848;42.524;12.052;2023-01-01T11:41:48;16.40;;;10.38;;
56943;SDS011;42848;42.524;12.052;2023-01-01T11:44:59;17.17;;;9.63;;
56943;SDS011;42848;42.524;12.052;2023-01-01T11:47:17;17.10;;;10.40;;
56943;SDS011;42848;42.524;12.052;2023-01-01T11:50:34;15.45;;;10.07;;
56943;SDS011;42848;42.524;12.052;2023-01-01T11:52:47;20.50;;;11.13;;
56943;SDS011;42848;42.524;12.052;2023-01-01T11:55:19;17.90;;;10.50;;
56943;SDS011;42848;42.524;12.052;2023-01-01T11:58:23;23.30;;;13.30;;
56943;SDS011;42848;42.524;12.052;2023-01-01T12:01:16;26.90;;;14.23;;
56943;SDS011;42848;42.524;12.052;2023-01-01T12:06:38;23.63;;;15.55;;
56943;SDS011;42848;42.524;12.052;2023-01-01T12:17:48;22.98;;;14.77;;
56943;SDS011;42848;42.524;12.052;2023-01-01T12:22:58;18.60;;;10.40;;
56943;SDS011;42848;42.524;12.052;2023-01-01T12:25:27;20.77;;;11.93;;
56943;SDS011;42848;42.524;12.052;2023-01-01T12:30:53;16.77;;;10.13;;
56943;SDS011;42848;42.524;12.052;2023-01-01T12:41:36;22.92;;;14.10;;
56943;SDS011;42848;42.524;12.052;2023-01-01T12:44:30;20.40;;;13.27;;
56943;SDS011;42848;42.524;12.052;2023-01-01T12:47:21;49.22;;;29.45;;
56943;SDS011;42848;42.524;12.052;2023-01-01T13:03:53;17.65;;;10.68;;
56943;SDS011;42848;42.524;12.052;2023-01-01T13:06:25;18.52;;;12.20;;
56943;SDS011;42848;42.524;12.052;2023-01-01T13:08:59;77.40;;;43.30;;
56943;SDS011;42848;42.524;12.052;2023-01-01T13:11:58;34.53;;;20.75;;
56943;SDS011;42848;42.524;12.052;2023-01-01T13:14:28;32.67;;;25.73;;
56943;SDS011;42848;42.524;12.052;2023-01-01T13:16:54;50.67;;;39.65;;
56943;SDS011;42848;42.524;12.052;2023-01-01T13:28:17;20.75;;;12.05;;
56943;SDS011;42848;42.524;12.052;2023-01-01T13:38:49;17.42;;;9.90;;
56943;SDS011;42848;42.524;12.052;2023-01-01T13:43:51;17.25;;;11.15;;
56943;SDS011;42848;42.524;12.052;2023-01-01T14:03:50;14.68;;;9.63;;
56943;SDS011;42848;42.524;12.052;2023-01-01T14:06:29;15.13;;;9.35;;
56943;SDS011;42848;42.524;12.052;2023-01-01T14:09:10;16.80;;;10.40;;
56943;SDS011;42848;42.524;12.052;2023-01-01T14:11:36;17.00;;;10.27;;
56943;SDS011;42848;42.524;12.052;2023-01-01T14:14:02;19.13;;;9.73;;
56943;SDS011;42848;42.524;12.052;2023-01-01T14:16:27;18.40;;;10.77;;
56943;SDS011;42848;42.524;12.052;2023-01-01T14:18:55;19.02;;;11.02;;
56943;SDS011;42848;42.524;12.052;2023-01-01T14:21:28;23.55;;;13.48;;
56943;SDS011;42848;42.524;12.052;2023-01-01T14:23:56;24.67;;;16.30;;
56943;SDS011;42848;42.524;12.052;2023-01-01T14:26:26;20.35;;;10.43;;
56943;SDS011;42848;42.524;12.052;2023-01-01T14:28:54;15.85;;;10.40;;
56943;SDS011;42848;42.524;12.052;2023-01-01T14:31:23;20.38;;;11.25;;
56943;SDS011;42848;42.524;12.052;2023-01-01T14:33:53;31.20;;;20.00;;
56943;SDS011;42848;42.524;12.052;2023-01-01T14:38:46;19.88;;;12.80;;
56943;SDS011;42848;42.524;12.052;2023-01-01T14:41:26;16.50;;;10.18;;
56943;SDS011;42848;42.524;12.052;2023-01-01T14:43:52;17.40;;;10.10;;
56943;SDS011;42848;42.524;12.052;2023-01-01T14:46:22;15.32;;;9.77;;
56943;SDS011;42848;42.524;12.052;2023-01-01T14:48:50;18.05;;;11.13;;
56943;SDS011;42848;42.524;12.052;2023-01-01T14:51:20;18.98;;;12.00;;
56943;SDS011;42848;42.524;12.052;2023-01-01T14:53:49;19.23;;;12.18;;
56943;SDS011;42848;42.524;12.052;2023-01-01T14:56:20;46.67;;;29.73;;
56943;SDS011;42848;42.524;12.052;2023-01-01T14:58:48;47.05;;;34.28;;
56943;SDS011;42848;42.524;12.052;2023-01-01T15:01:15;31.27;;;21.10;;
56943;SDS011;42848;42.524;12.052;2023-01-01T15:03:59;20.80;;;13.85;;
56943;SDS011;42848;42.524;12.052;2023-01-01T15:06:40;20.77;;;13.63;;
56943;SDS011;42848;42.524;12.052;2023-01-01T15:09:06;28.55;;;18.40;;
56943;SDS011;42848;42.524;12.052;2023-01-01T15:11:39;25.98;;;13.93;;
56943;SDS011;42848;42.524;12.052;2023-01-01T15:14:05;23.63;;;15.07;;
56943;SDS011;42848;42.524;12.052;2023-01-01T15:16:30;27.38;;;17.17;;
56943;SDS011;42848;42.524;12.052;2023-01-01T15:18:56;28.02;;;17.70;;
56943;SDS011;42848;42.524;12.052;2023-01-01T15:21:37;26.75;;;18.35;;
56943;SDS011;42848;42.524;12.052;2023-01-01T15:24:10;29.95;;;18.88;;
56943;SDS011;42848;42.524;12.052;2023-01-01T15:26:51;30.92;;;19.92;;
56943;SDS011;42848;42.524;12.052;2023-01-01T15:32:05;31.52;;;19.38;;
56943;SDS011;42848;42.524;12.052;2023-01-01T15:34:46;29.70;;;16.92;;
56943;SDS011;42848;42.524;12.052;2023-01-01T15:37:33;27.77;;;16.50;;
56943;SDS011;42848;42.524;12.052;2023-01-01T15:40:48;30.15;;;18.67;;
56943;SDS011;42848;42.524;12.052;2023-01-01T15:53:19;34.53;;;21.83;;
56943;SDS011;42848;42.524;12.052;2023-01-01T15:58:22;309.50;;;110.13;;
56943;SDS011;42848;42.524;12.052;2023-01-01T16:00:57;80.15;;;34.50;;
56943;SDS011;42848;42.524;12.052;2023-01-01T16:03:26;40.47;;;20.83;;
56943;SDS011;42848;42.524;12.052;2023-01-01T16:05:54;170.40;;;65.93;;
56943;SDS011;42848;42.524;12.052;2023-01-01T16:08:21;324.65;;;118.68;;
56943;SDS011;42848;42.524;12.052;2023-01-01T16:10:47;124.57;;;53.22;;
56943;SDS011;42848;42.524;12.052;2023-01-01T16:13:13;204.75;;;98.82;;
56943;SDS011;42848;42.524;12.052;2023-01-01T16:15:49;186.25;;;89.22;;
56943;SDS011;42848;42.524;12.052;2023-01-01T16:18:17;216.60;;;102.60;;
56943;SDS011;42848;42.524;12.052;2023-01-01T16:20:43;142.80;;;72.85;;
56943;SDS011;42848;42.524;12.052;2023-01-01T16:23:10;91.07;;;47.50;;
56943;SDS011;42848;42.524;12.052;2023-01-01T16:25:36;40.03;;;23.58;;
56943;SDS011;42848;42.524;12.052;2023-01-01T16:28:03;41.13;;;23.85;;
56943;SDS011;42848;42.524;12.052;2023-01-01T16:30:30;37.30;;;23.02;;
56943;SDS011;42848;42.524;12.052;2023-01-01T16:32:57;41.30;;;24.95;;
56943;SDS011;42848;42.524;12.052;2023-01-01T16:35:23;52.30;;;31.52;;
56943;SDS011;42848;42.524;12.052;2023-01-01T16:37:49;49.05;;;31.50;;
56943;SDS011;42848;42.524;12.052;2023-01-01T16:40:15;48.95;;;30.40;;
56943;SDS011;42848;42.524;12.052;2023-01-01T16:42:40;44.78;;;25.77;;
56943;SDS011;42848;42.524;12.052;2023-01-01T16:45:06;42.13;;;24.67;;